Tropical Cyclones
[Index]
Main Index Home Page Stock Weather Photos Extreme Storms Discussion Storm News and Storm Chasing Reports Tropical Cyclones / Hurricanes / Typhoons Weather Data and Links Wild Fires / Bushfires Weather Observation Techniques Weather Picture Catalogue Tornado Pictures and Reports Stock Video Footage and DVDs for sale
Season 1975-1976 Tropical Cyclone KIM Track Map
Season 1975-1976 Summaries: [BoM-AU] [JTWC-AU] [JTWC-SIO] [JTWC-SPAC] [JTWC-SH]
<<- Previous TC | BoM 1975-1976 Season | Next TC ->>

click for intensity scale information  Lat/long Grid: Show Hide

 Date Labels: Show Hide

Bureau of Meteorology Tropical Cyclone Data

Name: KIM
Number: 548 / 197576_03

02 Dec 1975 00:00 UTC to 10 Dec 1975 12:00 UTC

    date/time    lat    long    hPa   cat  kts
1975-12-02 00   11.1   136.9   1000         25          
1975-12-02 12   11.6   136.9    995    1    35          
1975-12-03 00   12.4   136.8    992    1    45          
1975-12-03 12   12.6   136.4    996         30          
1975-12-04 00   12.5   136.0   1000         20          
1975-12-04 12   12.4   135.7   1000         20          
1975-12-05 00   12.3   135.4   1000         20          
1975-12-05 12   12.4   134.2   1000         20          
1975-12-06 00   13.3   133.0   1000         20          
1975-12-07 23   13.5   136.2   1000         20          
1975-12-08 05   13.0   136.7    997         20          
1975-12-08 11   12.7   137.3    997         25          
1975-12-08 17   12.4   138.0    996         30          
1975-12-08 23   12.3   138.7    994    1    40          
1975-12-09 05   12.2   139.3    990    1    45          
1975-12-09 08   12.2   139.7    990    1    45          
1975-12-09 11   12.5   140.0    990    1    45          
1975-12-09 14   12.9   140.4    992    1    40          
1975-12-09 17   13.5   141.0    994    1    40          
1975-12-09 20   14.2   141.5    995    1    35          
1975-12-09 23   14.8   142.0    995    1    35          
1975-12-10 12   15.9   142.5   1000         25          
Winds are 10-min average.

Tropical cyclone tracks developed by Michael Bath using data from the Bureau of Meteorology and Google Maps.


[Australian Severe Weather index] [Copyright Notice] [Email Contacts] [Search This Site] [Privacy Policy]
Document: tropical_cyclone_kim.htm Updated: 4 April 2018